Time;durP1;ratioP1;P1;durP2;ratioP2;P2;SDS_P1;SDS_P2;PMS_P1;PMS_P2;Temp;Humidity;BMP_temperature;BMP_pressure;BME280_temperature;BME280_humidity;BME280_pressure;Samples;Min_cycle;Max_cycle;Signal;HPM_P1;HPM_P2
2021/10/27 00:02:22;;;;;;;33.45;22.98;;;13.70;99.90;;;;;;5036642;28;20037;-52
2021/10/27 00:04:48;;;;;;;34.20;23.08;;;13.60;99.90;;;;;;5036257;28;20038;-54
2021/10/27 00:07:16;;;;;;;34.92;22.00;;;13.60;99.90;;;;;;5034432;28;20037;-53
2021/10/27 00:09:42;;;;;;;39.20;23.50;;;13.60;99.90;;;;;;5034766;28;20459;-53
2021/10/27 00:12:08;;;;;;;41.28;23.08;;;13.60;99.90;;;;;;5034093;28;20041;-53
2021/10/27 00:14:33;;;;;;;31.30;23.25;;;13.60;99.90;;;;;;5034385;28;20405;-51
2021/10/27 00:16:59;;;;;;;38.13;22.20;;;13.60;99.90;;;;;;5033872;28;20037;-52
2021/10/27 00:19:25;;;;;;;34.72;22.08;;;13.60;99.90;;;;;;5034005;28;20045;-50
2021/10/27 00:21:50;;;;;;;37.10;22.17;;;13.60;99.90;;;;;;5026492;28;20037;-52
2021/10/27 00:24:16;;;;;;;37.92;24.02;;;13.60;99.90;;;;;;5034099;28;20132;-52
2021/10/27 00:26:41;;;;;;;34.97;21.55;;;13.60;99.90;;;;;;5025693;28;20068;-52
2021/10/27 00:29:07;;;;;;;37.05;23.92;;;13.60;99.90;;;;;;5033950;28;20511;-51
2021/10/27 00:31:33;;;;;;;32.30;21.92;;;13.60;99.90;;;;;;5034032;28;20033;-53
2021/10/27 00:33:58;;;;;;;37.08;23.10;;;13.60;99.90;;;;;;5034056;28;20036;-54
2021/10/27 00:36:24;;;;;;;34.90;20.98;;;13.60;99.90;;;;;;5033708;28;20038;-53
2021/10/27 00:38:49;;;;;;;34.53;22.33;;;13.60;99.90;;;;;;5031841;28;20061;-50
2021/10/27 00:41:16;;;;;;;34.42;21.20;;;13.60;99.90;;;;;;5031658;28;20033;-53
2021/10/27 00:43:42;;;;;;;38.05;21.77;;;13.60;99.90;;;;;;5025739;28;20029;-53
2021/10/27 00:46:18;;;;;;;34.33;22.27;;;13.60;99.90;;;;;;5033103;28;20555;-53
2021/10/27 00:48:44;;;;;;;32.58;22.27;;;13.60;99.90;;;;;;5022071;28;20053;-50
2021/10/27 00:51:09;;;;;;;33.17;21.90;;;13.60;99.90;;;;;;5029502;28;20034;-53
2021/10/27 00:53:36;;;;;;;34.17;22.77;;;13.60;99.90;;;;;;5033220;28;20496;-53
2021/10/27 00:56:01;;;;;;;35.22;23.35;;;13.50;99.90;;;;;;5032172;28;20487;-53
2021/10/27 00:58:28;;;;;;;33.63;23.00;;;13.60;99.90;;;;;;5033043;28;20073;-52
2021/10/27 01:00:54;;;;;;;32.28;22.42;;;13.50;99.90;;;;;;5033739;28;20037;-52
2021/10/27 01:03:19;;;;;;;33.20;23.63;;;13.50;99.90;;;;;;5033230;28;20562;-54
2021/10/27 01:05:45;;;;;;;35.30;21.98;;;13.50;99.90;;;;;;5033071;28;20048;-53
2021/10/27 01:08:11;;;;;;;36.03;23.35;;;13.50;99.90;;;;;;5029666;28;20224;-53
2021/10/27 01:10:37;;;;;;;35.70;22.42;;;13.50;99.90;;;;;;5032317;28;20037;-54
2021/10/27 01:13:02;;;;;;;33.08;22.73;;;13.50;99.90;;;;;;5033387;28;20048;-51
2021/10/27 01:15:28;;;;;;;38.10;23.60;;;13.50;99.90;;;;;;5032699;28;20456;-51
2021/10/27 01:17:54;;;;;;;35.40;22.42;;;13.50;99.90;;;;;;5032735;28;20042;-55
2021/10/27 01:20:20;;;;;;;32.10;22.25;;;13.50;99.90;;;;;;5033167;28;20037;-54
2021/10/27 01:22:45;;;;;;;34.95;20.92;;;13.50;99.90;;;;;;5032819;28;20049;-53
2021/10/27 01:25:12;;;;;;;31.95;21.92;;;13.60;99.90;;;;;;5033071;28;20121;-55
2021/10/27 01:27:42;;;;;;;35.42;21.85;;;13.60;99.90;;;;;;5032230;28;20056;-50
2021/10/27 01:30:13;;;;;;;34.15;22.63;;;13.60;99.90;;;;;;5033192;28;20429;-50
2021/10/27 01:32:39;;;;;;;36.13;21.65;;;13.60;99.90;;;;;;5032731;28;20037;-54
2021/10/27 01:35:07;;;;;;;35.05;22.90;;;13.60;99.90;;;;;;5027023;28;20104;-51
2021/10/27 01:37:34;;;;;;;41.13;24.02;;;13.60;99.90;;;;;;5031910;28;20033;-50
2021/10/27 01:40:00;;;;;;;37.20;22.88;;;13.70;99.90;;;;;;5030990;28;20033;-54
2021/10/27 01:42:25;;;;;;;34.45;23.00;;;13.70;99.90;;;;;;5032482;28;20072;-54
2021/10/27 01:44:51;;;;;;;31.27;21.30;;;13.70;99.90;;;;;;5032278;28;20041;-54
2021/10/27 01:47:16;;;;;;;38.63;23.10;;;13.70;99.90;;;;;;5032547;28;20120;-52
2021/10/27 01:49:42;;;;;;;33.40;23.05;;;13.80;99.90;;;;;;5032335;28;20149;-53
2021/10/27 01:52:08;;;;;;;38.38;23.42;;;13.80;99.90;;;;;;5032556;28;20030;-54
2021/10/27 01:54:34;;;;;;;40.72;22.98;;;13.80;99.90;;;;;;5032611;28;20047;-55
2021/10/27 01:57:00;;;;;;;40.78;23.10;;;13.80;99.90;;;;;;5031240;28;20382;-53
2021/10/27 01:59:26;;;;;;;38.47;22.58;;;13.80;99.90;;;;;;5032779;28;20038;-54
2021/10/27 02:01:52;;;;;;;38.97;24.10;;;13.80;99.90;;;;;;5031755;28;20448;-51
2021/10/27 02:04:21;;;;;;;36.15;21.00;;;13.80;99.90;;;;;;5032316;28;20030;-55
2021/10/27 02:06:47;;;;;;;33.83;21.00;;;13.80;99.90;;;;;;5030085;28;20037;-54
2021/10/27 02:09:13;;;;;;;32.95;20.67;;;13.80;99.90;;;;;;5032027;28;20512;-53
2021/10/27 02:11:39;;;;;;;35.80;20.95;;;13.80;99.90;;;;;;5030990;28;20030;-55
2021/10/27 02:14:04;;;;;;;33.97;19.48;;;13.80;99.90;;;;;;5018953;28;20068;-55
2021/10/27 02:16:30;;;;;;;33.35;19.40;;;13.90;99.90;;;;;;5032180;28;20464;-56
2021/10/27 02:18:56;;;;;;;36.72;19.55;;;13.90;99.90;;;;;;5032167;28;20033;-54
2021/10/27 02:21:22;;;;;;;28.77;18.05;;;13.90;99.90;;;;;;5032267;28;20044;-54
2021/10/27 02:23:51;;;;;;;32.30;17.67;;;13.90;99.90;;;;;;5023716;28;20524;-55
2021/10/27 02:26:18;;;;;;;29.13;16.58;;;13.90;99.90;;;;;;5025908;28;20042;-55
2021/10/27 02:28:44;;;;;;;30.60;18.17;;;13.90;99.90;;;;;;5031861;28;20412;-54
2021/10/27 02:31:10;;;;;;;27.35;16.58;;;13.90;99.90;;;;;;5031789;28;20038;-54
2021/10/27 02:33:35;;;;;;;29.65;16.92;;;14.00;99.90;;;;;;5031745;28;20045;-53
2021/10/27 02:36:01;;;;;;;31.95;17.35;;;14.00;99.90;;;;;;5031485;28;20041;-53
2021/10/27 02:38:26;;;;;;;32.35;17.10;;;14.00;99.90;;;;;;5031925;28;20044;-51
2021/10/27 02:40:52;;;;;;;25.50;15.60;;;14.00;99.90;;;;;;5031590;28;20504;-54
2021/10/27 02:43:18;;;;;;;26.17;14.57;;;14.00;99.90;;;;;;5031742;28;20079;-54
2021/10/27 02:45:45;;;;;;;24.02;14.27;;;14.00;99.90;;;;;;5031735;28;20045;-53
2021/10/27 02:48:12;;;;;;;25.67;14.13;;;14.00;99.90;;;;;;5031013;28;20102;-52
2021/10/27 02:50:38;;;;;;;23.65;13.02;;;14.00;99.90;;;;;;5031642;28;20067;-52
2021/10/27 02:53:03;;;;;;;25.65;12.95;;;14.00;99.90;;;;;;5031316;28;20037;-54
2021/10/27 02:55:30;;;;;;;28.67;12.98;;;14.10;99.90;;;;;;5031236;28;20037;-50
2021/10/27 02:57:57;;;;;;;27.35;13.55;;;14.10;99.90;;;;;;5030807;28;20479;-56
2021/10/27 03:00:23;;;;;;;23.20;12.60;;;14.10;99.90;;;;;;5031530;28;20053;-53
2021/10/27 03:02:49;;;;;;;27.00;12.55;;;14.10;99.90;;;;;;5030640;28;20037;-53
2021/10/27 03:05:14;;;;;;;21.73;11.98;;;14.10;99.90;;;;;;5029572;28;20077;-53
2021/10/27 03:07:40;;;;;;;22.63;11.63;;;14.10;99.90;;;;;;5030818;28;20045;-54
2021/10/27 03:10:06;;;;;;;24.08;11.15;;;14.10;99.90;;;;;;5030871;28;20493;-53
2021/10/27 03:12:32;;;;;;;25.45;11.98;;;14.10;99.90;;;;;;5031351;28;20033;-54
2021/10/27 03:14:57;;;;;;;28.98;10.77;;;14.10;99.90;;;;;;5030495;28;20037;-50
2021/10/27 03:17:23;;;;;;;21.63;10.52;;;14.10;99.90;;;;;;5030939;28;20039;-53
2021/10/27 03:19:48;;;;;;;23.73;10.02;;;14.10;99.90;;;;;;5030340;28;20121;-50
2021/10/27 03:22:14;;;;;;;19.55;9.90;;;14.20;99.90;;;;;;5030526;28;20041;-50
2021/10/27 03:24:39;;;;;;;21.52;10.45;;;14.20;99.90;;;;;;5031059;28;20045;-53
2021/10/27 03:27:05;;;;;;;26.08;10.20;;;14.20;99.90;;;;;;5030560;28;20072;-53
2021/10/27 03:29:31;;;;;;;21.42;10.57;;;14.20;99.90;;;;;;5030559;28;20041;-51
2021/10/27 03:31:56;;;;;;;24.52;10.48;;;14.20;99.90;;;;;;5030315;28;20048;-54
2021/10/27 03:34:22;;;;;;;22.67;10.55;;;14.20;99.90;;;;;;5030905;28;20041;-54
2021/10/27 03:36:47;;;;;;;19.10;9.88;;;14.20;99.90;;;;;;5030518;28;20417;-55
2021/10/27 03:39:13;;;;;;;22.00;9.18;;;14.30;99.90;;;;;;5030638;28;20425;-55
2021/10/27 03:41:39;;;;;;;20.38;9.30;;;14.30;99.90;;;;;;5025213;28;20513;-53
2021/10/27 03:44:05;;;;;;;14.73;8.88;;;14.20;99.90;;;;;;5030329;28;20052;-53
2021/10/27 03:46:32;;;;;;;15.50;8.93;;;14.20;99.90;;;;;;5030758;28;20041;-54
2021/10/27 03:48:57;;;;;;;21.42;8.70;;;14.30;99.90;;;;;;5028755;28;20505;-53
2021/10/27 03:51:23;;;;;;;18.85;8.60;;;14.30;99.90;;;;;;5030413;28;20038;-53
2021/10/27 03:53:48;;;;;;;20.67;8.73;;;14.20;99.90;;;;;;5030547;28;20130;-54
2021/10/27 03:56:14;;;;;;;22.25;8.63;;;14.20;99.90;;;;;;5030093;28;20116;-54
2021/10/27 03:58:40;;;;;;;21.00;7.78;;;14.30;99.90;;;;;;5030725;28;20069;-50
2021/10/27 04:01:06;;;;;;;21.75;8.70;;;14.30;99.90;;;;;;5029832;28;20046;-54
2021/10/27 04:03:31;;;;;;;18.80;7.93;;;14.30;99.90;;;;;;5030539;28;20500;-50
2021/10/27 04:05:57;;;;;;;17.58;7.53;;;14.30;99.90;;;;;;5030247;28;20112;-55
2021/10/27 04:08:23;;;;;;;19.15;9.18;;;14.30;99.90;;;;;;5030310;28;20049;-51
2021/10/27 04:10:48;;;;;;;22.67;8.85;;;14.30;99.90;;;;;;5030485;28;20128;-50
2021/10/27 04:13:16;;;;;;;17.80;8.27;;;14.30;99.90;;;;;;5029944;28;20037;-50
2021/10/27 04:15:43;;;;;;;17.38;8.48;;;14.30;99.90;;;;;;5030467;28;20084;-50
2021/10/27 04:18:09;;;;;;;20.27;8.68;;;14.30;99.90;;;;;;5030390;28;20405;-53
2021/10/27 04:20:35;;;;;;;20.50;8.10;;;14.30;99.90;;;;;;5029782;28;20029;-55
2021/10/27 04:23:00;;;;;;;22.38;9.00;;;14.30;99.90;;;;;;5030522;28;20044;-52
2021/10/27 04:25:26;;;;;;;16.05;9.55;;;14.30;99.90;;;;;;5029838;28;20041;-52
2021/10/27 04:27:52;;;;;;;21.23;9.63;;;14.30;99.90;;;;;;5029912;28;20076;-50
2021/10/27 04:30:17;;;;;;;22.08;9.95;;;14.30;99.90;;;;;;5030890;28;20036;-52
2021/10/27 04:32:43;;;;;;;24.02;10.35;;;14.30;99.90;;;;;;5035348;28;20497;-52
2021/10/27 04:35:10;;;;;;;22.90;10.50;;;14.30;99.90;;;;;;5034299;28;20034;-55
2021/10/27 04:37:39;;;;;;;21.00;11.68;;;14.30;99.90;;;;;;5033165;28;20044;-55
2021/10/27 04:40:06;;;;;;;17.23;10.43;;;14.30;99.90;;;;;;5034225;28;20044;-55
2021/10/27 04:42:32;;;;;;;23.25;11.48;;;14.30;99.90;;;;;;5033017;28;20497;-52
2021/10/27 04:44:57;;;;;;;26.17;11.95;;;14.20;99.90;;;;;;5034225;28;20040;-51
2021/10/27 04:47:23;;;;;;;30.10;12.30;;;14.20;99.90;;;;;;5032855;28;20126;-54
2021/10/27 04:49:49;;;;;;;21.92;13.52;;;14.20;99.90;;;;;;5033309;28;20041;-53
2021/10/27 04:52:14;;;;;;;25.08;13.70;;;14.10;99.90;;;;;;5033622;28;20044;-52
2021/10/27 04:54:40;;;;;;;26.73;13.77;;;14.10;99.90;;;;;;5030704;28;20065;-55
2021/10/27 04:57:06;;;;;;;27.67;14.20;;;14.10;99.90;;;;;;5031514;28;20041;-54
2021/10/27 04:59:42;;;;;;;24.70;14.25;;;14.10;99.90;;;;;;5033091;28;20036;-53
2021/10/27 05:02:08;;;;;;;26.38;13.65;;;14.00;99.90;;;;;;5026685;28;20042;-52
2021/10/27 05:04:34;;;;;;;32.60;14.85;;;14.00;99.90;;;;;;5033025;28;20056;-53
2021/10/27 05:06:59;;;;;;;24.92;13.57;;;13.90;99.90;;;;;;5033278;28;20044;-55
2021/10/27 05:09:25;;;;;;;27.55;12.95;;;13.90;99.90;;;;;;5032284;28;20121;-55
2021/10/27 05:11:51;;;;;;;22.33;12.38;;;13.90;99.90;;;;;;5027608;28;20034;-54
2021/10/27 05:14:17;;;;;;;23.90;12.77;;;13.90;99.90;;;;;;5032447;28;20520;-54
2021/10/27 05:16:43;;;;;;;19.25;13.23;;;13.90;99.90;;;;;;5032070;28;20402;-51
2021/10/27 05:19:08;;;;;;;27.98;12.65;;;13.90;99.90;;;;;;5029890;28;20033;-54
2021/10/27 05:21:34;;;;;;;23.08;12.30;;;13.90;99.90;;;;;;5028781;28;20037;-54
2021/10/27 05:23:59;;;;;;;25.95;12.30;;;13.90;99.90;;;;;;5032047;28;20060;-51
2021/10/27 05:26:25;;;;;;;21.35;11.30;;;13.90;99.90;;;;;;5032069;28;20293;-53
2021/10/27 05:28:50;;;;;;;22.08;10.32;;;13.90;99.90;;;;;;5031979;28;20041;-53
2021/10/27 05:31:16;;;;;;;21.38;10.50;;;14.00;99.90;;;;;;5031903;28;20042;-54
2021/10/27 05:33:42;;;;;;;18.98;9.98;;;14.00;99.90;;;;;;5033260;28;20064;-51
2021/10/27 05:36:08;;;;;;;19.10;9.65;;;14.00;99.90;;;;;;5031858;28;20057;-52
2021/10/27 05:38:33;;;;;;;20.55;9.30;;;14.00;99.90;;;;;;5033106;28;20037;-54
2021/10/27 05:40:59;;;;;;;18.23;8.98;;;14.00;99.90;;;;;;5030436;28;20034;-53
2021/10/27 05:43:26;;;;;;;19.23;9.40;;;14.00;99.90;;;;;;5029208;28;20120;-52
2021/10/27 05:45:55;;;;;;;18.45;9.23;;;14.00;99.90;;;;;;5011509;28;20049;-53
2021/10/27 05:48:22;;;;;;;17.83;9.10;;;14.00;99.90;;;;;;5028616;28;20045;-51
2021/10/27 05:51:09;;;;;;;22.45;9.05;;;14.00;99.90;;;;;;5029845;28;20053;-54
2021/10/27 05:56:19;;;;;;;19.08;9.15;;;14.00;99.90;;;;;;5031989;28;20413;-50
2021/10/27 05:58:48;;;;;;;21.17;9.60;;;14.00;99.90;;;;;;5032192;28;20048;-52
2021/10/27 06:01:14;;;;;;;20.65;9.50;;;14.00;99.90;;;;;;5032148;28;20075;-51
2021/10/27 06:03:40;;;;;;;16.58;9.55;;;14.00;99.90;;;;;;5032020;28;20120;-53
2021/10/27 06:06:06;;;;;;;19.75;9.38;;;14.10;99.90;;;;;;5031651;28;20160;-53
2021/10/27 06:08:33;;;;;;;20.92;9.35;;;14.00;99.90;;;;;;5032309;28;20507;-51
2021/10/27 06:11:06;;;;;;;18.25;10.02;;;14.00;99.90;;;;;;5031992;28;20104;-54
2021/10/27 06:13:35;;;;;;;18.40;9.77;;;14.00;99.90;;;;;;5032098;28;20037;-52
2021/10/27 06:16:01;;;;;;;18.08;8.85;;;14.00;99.90;;;;;;5024206;28;20049;-52
2021/10/27 06:18:27;;;;;;;18.92;10.05;;;14.10;99.90;;;;;;5031630;28;20405;-51
2021/10/27 06:20:53;;;;;;;19.85;9.38;;;14.10;99.90;;;;;;5031957;28;20037;-53
2021/10/27 06:23:19;;;;;;;23.20;10.27;;;14.10;99.90;;;;;;5031942;28;20039;-53
2021/10/27 06:25:47;;;;;;;22.23;11.63;;;14.00;99.90;;;;;;5027574;28;20444;-50
2021/10/27 06:28:16;;;;;;;19.10;10.27;;;14.00;99.90;;;;;;5031680;28;20047;-50
2021/10/27 06:30:50;;;;;;;19.77;10.63;;;14.00;99.90;;;;;;5030821;28;20037;-53
2021/10/27 06:33:23;;;;;;;20.80;12.45;;;14.00;99.90;;;;;;5029136;28;20094;-52
2021/10/27 06:36:04;;;;;;;23.05;12.32;;;14.00;99.90;;;;;;5018874;28;20052;-50
2021/10/27 06:46:35;;;;;;;21.58;14.43;;;13.90;99.90;;;;;;5023010;28;20048;-53
2021/10/27 06:49:01;;;;;;;21.52;14.05;;;13.80;99.90;;;;;;5026115;28;20481;-52
2021/10/27 06:51:27;;;;;;;23.92;14.48;;;13.80;99.90;;;;;;5031847;28;20045;-52
2021/10/27 06:53:53;;;;;;;22.50;14.65;;;13.80;99.90;;;;;;5018625;28;20128;-52
2021/10/27 06:56:21;;;;;;;23.13;14.57;;;13.80;99.90;;;;;;5030935;28;20039;-53
2021/10/27 06:58:50;;;;;;;22.30;14.18;;;13.80;99.90;;;;;;5030968;28;20153;-53
2021/10/27 07:02:07;;;;;;;24.38;15.43;;;13.80;99.90;;;;;;5030839;28;20112;-52
2021/10/27 07:06:59;;;;;;;24.98;15.65;;;13.70;99.90;;;;;;5029802;28;20038;-51
2021/10/27 07:17:31;;;;;;;28.48;15.73;;;13.70;99.90;;;;;;5028734;28;20037;-53
2021/10/27 07:20:02;;;;;;;23.50;15.80;;;13.70;99.90;;;;;;5030842;28;20460;-53
2021/10/27 07:22:28;;;;;;;22.92;15.48;;;13.70;99.90;;;;;;5031252;28;20045;-50
2021/10/27 07:24:53;;;;;;;23.30;15.07;;;13.70;99.90;;;;;;5031074;28;20045;-52
2021/10/27 07:27:19;;;;;;;22.45;15.35;;;13.70;99.90;;;;;;5030346;28;20069;-50
2021/10/27 07:29:45;;;;;;;20.33;14.95;;;13.70;99.90;;;;;;5029683;28;20087;-52
2021/10/27 07:32:14;;;;;;;25.30;14.90;;;13.80;99.90;;;;;;5030859;28;20041;-50
2021/10/27 07:34:44;;;;;;;25.55;14.98;;;13.70;99.90;;;;;;5030778;28;20071;-52
2021/10/27 07:42:28;;;;;;;25.95;16.35;;;13.80;99.90;;;;;;5029570;28;20560;-51
2021/10/27 07:44:54;;;;;;;26.15;16.33;;;13.70;99.90;;;;;;5030414;28;20137;-53
2021/10/27 07:47:19;;;;;;;24.58;15.20;;;13.80;99.90;;;;;;5030712;28;20037;-50
2021/10/27 07:49:47;;;;;;;25.77;15.27;;;13.70;99.90;;;;;;5030823;28;20595;-50
2021/10/27 07:52:13;;;;;;;22.40;14.32;;;13.80;99.90;;;;;;5030643;28;20120;-51
2021/10/27 07:54:38;;;;;;;25.77;14.98;;;13.80;99.90;;;;;;5013454;28;20133;-54
2021/10/27 07:57:04;;;;;;;23.48;14.18;;;13.80;99.90;;;;;;5019450;28;20116;-52
2021/10/27 07:59:31;;;;;;;21.92;13.27;;;13.80;99.90;;;;;;5023071;28;20045;-51
2021/10/27 08:01:58;;;;;;;22.77;13.32;;;13.90;99.90;;;;;;5030449;28;20057;-52
2021/10/27 08:04:23;;;;;;;23.40;12.88;;;13.90;99.90;;;;;;5029724;28;20084;-54
2021/10/27 08:06:50;;;;;;;19.08;12.60;;;13.90;99.90;;;;;;5024711;28;20484;-53
2021/10/27 08:09:17;;;;;;;17.55;13.10;;;13.90;99.90;;;;;;5025340;28;20072;-53
2021/10/27 08:11:43;;;;;;;19.70;11.27;;;14.00;99.90;;;;;;5036493;28;20163;-52
2021/10/27 08:14:08;;;;;;;24.65;11.63;;;14.00;99.90;;;;;;5033697;28;20667;-52
2021/10/27 08:16:34;;;;;;;21.02;10.90;;;14.00;99.90;;;;;;5033287;28;20693;-54
2021/10/27 08:19:00;;;;;;;20.33;10.52;;;14.10;99.90;;;;;;5034253;28;20033;-52
2021/10/27 08:21:26;;;;;;;17.33;10.43;;;14.00;99.90;;;;;;5033920;28;20046;-55
2021/10/27 08:23:53;;;;;;;15.55;9.75;;;14.10;99.90;;;;;;5033295;28;20547;-52
2021/10/27 08:30:12;;;;;;;16.40;9.75;;;14.10;99.90;;;;;;5031797;28;20095;-51
2021/10/27 08:32:53;;;;;;;16.17;8.95;;;14.10;99.90;;;;;;5030513;28;20095;-54
2021/10/27 08:35:19;;;;;;;17.08;9.00;;;14.10;99.90;;;;;;5029762;28;20452;-53
2021/10/27 08:37:46;;;;;;;14.27;7.95;;;14.10;99.90;;;;;;5032748;28;20037;-53
2021/10/27 08:40:14;;;;;;;15.82;8.35;;;14.10;99.90;;;;;;5030747;28;20040;-55
2021/10/27 08:42:41;;;;;;;17.38;8.63;;;14.10;99.90;;;;;;5031075;28;20052;-54
2021/10/27 08:45:07;;;;;;;19.25;9.00;;;14.10;99.90;;;;;;5028426;28;20077;-53
2021/10/27 08:47:33;;;;;;;14.35;7.57;;;14.10;99.90;;;;;;5032840;28;20171;-53
2021/10/27 08:50:00;;;;;;;16.13;7.90;;;14.10;99.90;;;;;;5032948;28;20040;-54
2021/10/27 08:52:25;;;;;;;16.45;7.45;;;14.20;99.90;;;;;;5030837;28;20054;-52
2021/10/27 08:54:51;;;;;;;17.92;7.45;;;14.20;99.90;;;;;;5030900;28;20076;-53
2021/10/27 08:57:18;;;;;;;14.00;6.57;;;14.20;99.90;;;;;;5032856;28;20037;-53
2021/10/27 09:00:11;;;;;;;16.05;7.40;;;14.20;99.90;;;;;;5032785;28;20069;-53
2021/10/27 09:02:52;;;;;;;12.98;6.50;;;14.20;99.90;;;;;;5029632;28;20218;-53
2021/10/27 09:34:03;;;;;;;12.60;6.00;;;14.40;99.90;;;;;;5031398;28;20107;-52
2021/10/27 09:36:55;;;;;;;10.88;5.63;;;14.40;99.90;;;;;;5030718;28;20037;-49
2021/10/27 09:45:03;;;;;;;15.45;5.88;;;14.50;99.90;;;;;;5025266;28;20049;-55
2021/10/27 09:47:54;;;;;;;11.25;4.90;;;14.60;99.90;;;;;;5026232;28;20067;-54
2021/10/27 09:56:28;;;;;;;14.80;5.30;;;14.70;99.90;;;;;;5022370;28;20057;-54
2021/10/27 10:04:03;;;;;;;12.23;5.35;;;14.70;99.90;;;;;;5023627;28;20144;-53
2021/10/27 10:04:42;;;;;;;11.82;4.90;;;14.70;99.90;;;;;;5024052;28;20098;-53
2021/10/27 10:07:10;;;;;;;13.23;5.30;;;14.80;99.90;;;;;;5024318;28;20516;-55
2021/10/27 10:09:39;;;;;;;10.80;5.32;;;14.80;99.90;;;;;;5019597;28;20042;-54
2021/10/27 10:12:06;;;;;;;12.88;4.95;;;14.80;99.90;;;;;;5027253;28;20041;-53
2021/10/27 10:14:32;;;;;;;14.93;5.38;;;14.80;99.90;;;;;;5024505;28;20092;-54
2021/10/27 10:17:01;;;;;;;11.23;4.65;;;14.80;99.90;;;;;;5025391;28;20145;-54
2021/10/27 10:19:38;;;;;;;12.50;5.22;;;14.80;99.90;;;;;;5023170;28;20083;-55
2021/10/27 10:22:24;;;;;;;11.32;5.07;;;14.80;99.90;;;;;;5024773;28;20044;-54
2021/10/27 10:24:49;;;;;;;11.90;4.85;;;14.80;99.90;;;;;;5018646;28;20566;-53
2021/10/27 10:27:35;;;;;;;9.63;4.40;;;14.80;99.90;;;;;;5026212;28;20097;-52
2021/10/27 10:30:04;;;;;;;10.10;4.25;;;14.80;99.90;;;;;;5023784;28;20033;-55
2021/10/27 10:32:33;;;;;;;11.88;4.63;;;14.80;99.90;;;;;;5023493;28;20033;-54
2021/10/27 10:35:17;;;;;;;14.75;4.70;;;14.80;99.90;;;;;;5025500;28;20033;-55
2021/10/27 10:40:41;;;;;;;12.00;4.45;;;14.80;99.90;;;;;;5026316;28;20057;-54
2021/10/27 10:43:21;;;;;;;9.30;4.45;;;14.80;99.90;;;;;;5024350;28;20304;-53
2021/10/27 10:57:22;;;;;;;12.43;4.55;;;15.00;99.90;;;;;;5023363;28;20106;-53
2021/10/27 11:37:25;;;;;;;9.05;4.05;;;15.10;99.90;;;;;;5024456;28;20099;-55
2021/10/27 11:39:54;;;;;;;8.75;3.85;;;15.10;99.90;;;;;;5024478;28;20471;-53
2021/10/27 11:45:03;;;;;;;9.82;4.00;;;15.10;99.90;;;;;;5024571;28;20065;-56
2021/10/27 11:47:41;;;;;;;7.32;4.25;;;15.20;99.90;;;;;;5020908;28;20044;-55
2021/10/27 11:50:15;;;;;;;7.85;3.88;;;15.20;99.90;;;;;;5008202;28;20478;-52
2021/10/27 11:52:52;;;;;;;12.13;4.40;;;15.20;99.90;;;;;;5025396;28;20513;-54
2021/10/27 11:55:20;;;;;;;8.18;3.97;;;15.30;99.90;;;;;;5025067;28;20042;-53
2021/10/27 11:57:47;;;;;;;12.20;3.75;;;15.30;99.90;;;;;;5025172;28;20042;-53
2021/10/27 12:00:36;;;;;;;7.57;3.72;;;15.30;99.90;;;;;;5024748;28;20041;-54
2021/10/27 12:03:12;;;;;;;8.80;3.75;;;15.40;99.90;;;;;;5025630;28;20048;-50
2021/10/27 12:05:47;;;;;;;9.68;3.92;;;15.40;99.90;;;;;;5024828;28;20045;-53
2021/10/27 12:08:42;;;;;;;9.70;4.00;;;15.40;99.90;;;;;;5020359;28;20042;-54
2021/10/27 12:16:41;;;;;;;8.75;3.92;;;15.40;99.70;;;;;;5025113;28;20135;-53
2021/10/27 12:19:36;;;;;;;11.40;4.18;;;15.40;99.10;;;;;;5007049;28;20605;-53
2021/10/27 12:22:06;;;;;;;11.38;4.57;;;15.40;99.30;;;;;;5022638;28;20077;-54
2021/10/27 12:24:34;;;;;;;11.80;4.18;;;15.40;99.00;;;;;;5023742;28;20412;-55
2021/10/27 12:27:05;;;;;;;12.68;4.53;;;15.40;99.00;;;;;;5019032;28;20030;-52
2021/10/27 12:29:33;;;;;;;11.02;5.13;;;15.40;98.90;;;;;;5019829;28;20065;-54
2021/10/27 12:32:11;;;;;;;9.98;4.20;;;15.40;98.90;;;;;;5022921;28;20060;-53
2021/10/27 12:34:49;;;;;;;12.00;4.50;;;15.50;98.10;;;;;;5024767;28;20390;-56
2021/10/27 12:37:41;;;;;;;16.13;4.32;;;15.50;98.60;;;;;;5024483;28;20099;-52
2021/10/27 12:40:32;;;;;;;9.57;4.47;;;15.50;98.60;;;;;;5021639;28;20498;-54
2021/10/27 12:43:15;;;;;;;10.60;4.97;;;15.50;98.60;;;;;;5009136;28;20042;-53
2021/10/27 12:45:46;;;;;;;11.40;4.70;;;15.50;98.10;;;;;;5024775;28;20056;-55
2021/10/27 12:48:14;;;;;;;11.85;4.32;;;15.50;98.10;;;;;;5024657;28;20116;-53
2021/10/27 12:51:01;;;;;;;9.32;4.15;;;15.50;98.20;;;;;;5024610;28;20045;-53
2021/10/27 12:53:35;;;;;;;9.65;4.65;;;15.50;98.20;;;;;;5027749;28;20060;-53
2021/10/27 12:56:14;;;;;;;10.10;4.20;;;15.50;98.30;;;;;;5019767;28;20118;-55
2021/10/27 12:58:52;;;;;;;9.20;4.20;;;15.50;98.40;;;;;;5026041;28;20037;-53
2021/10/27 13:01:53;;;;;;;7.80;3.70;;;15.50;98.40;;;;;;5026486;28;20073;-56
2021/10/27 13:07:05;;;;;;;11.15;4.43;;;15.50;97.70;;;;;;5027248;28;20049;-52
2021/10/27 13:09:49;;;;;;;9.25;4.38;;;15.50;97.80;;;;;;5027553;28;20431;-53
2021/10/27 13:15:12;;;;;;;6.45;3.53;;;15.50;97.90;;;;;;5028409;28;20457;-51
2021/10/27 13:20:19;;;;;;;9.93;3.70;;;15.50;97.60;;;;;;5025617;28;20073;-54
2021/10/27 13:22:51;;;;;;;7.80;3.50;;;15.50;97.60;;;;;;5019876;28;20172;-55
2021/10/27 13:30:52;;;;;;;8.82;3.20;;;15.50;97.20;;;;;;5027127;28;20055;-53
2021/10/27 13:33:20;;;;;;;9.90;3.30;;;15.50;97.30;;;;;;5028274;28;20045;-54
2021/10/27 13:35:46;;;;;;;5.82;2.67;;;15.50;97.30;;;;;;5026025;28;20072;-53
2021/10/27 13:38:13;;;;;;;5.53;2.53;;;15.50;97.30;;;;;;5027014;28;20041;-53
2021/10/27 13:40:45;;;;;;;8.02;2.78;;;15.40;97.30;;;;;;5021023;28;20064;-51
2021/10/27 13:43:23;;;;;;;7.68;2.90;;;15.40;97.40;;;;;;5028199;28;20037;-53
2021/10/27 13:48:39;;;;;;;6.03;2.83;;;15.40;97.50;;;;;;5028110;28;20051;-55
2021/10/27 14:05:58;;;;;;;9.80;2.72;;;15.40;97.60;;;;;;5023899;28;20107;-55
2021/10/27 14:08:04;;;;;;;6.30;2.20;;;15.40;97.10;;;;;;5025778;28;20164;-53
2021/10/27 14:13:32;;;;;;;6.82;2.33;;;15.50;96.20;;;;;;5024758;28;20041;-52
2021/10/27 14:16:19;;;;;;;7.00;2.20;;;15.40;96.20;;;;;;5025943;28;20693;-54
2021/10/27 14:40:48;;;;;;;6.00;2.70;;;15.30;97.70;;;;;;5064339;28;20539;-54
2021/10/27 15:20:56;;;;;;;7.93;4.10;;;15.10;99.50;;;;;;5045594;28;20048;-53
2021/10/27 15:29:06;;;;;;;8.73;4.93;;;15.10;99.50;;;;;;5042040;28;20123;-51
2021/10/27 15:36:58;;;;;;;10.52;5.40;;;15.10;99.70;;;;;;5050261;28;20037;-53
2021/10/27 15:42:27;;;;;;;8.00;4.47;;;15.00;99.60;;;;;;5048464;28;20044;-53
2021/10/27 15:52:50;;;;;;;8.07;5.22;;;14.90;99.70;;;;;;5045299;28;20580;-54
2021/10/27 15:55:16;;;;;;;11.10;5.90;;;14.90;99.80;;;;;;5048220;28;20128;-54
2021/10/27 15:57:42;;;;;;;11.52;5.70;;;14.90;99.90;;;;;;5049761;28;20033;-53
2021/10/27 16:00:08;;;;;;;10.85;5.70;;;14.90;99.90;;;;;;5044807;28;20033;-53
2021/10/27 16:02:34;;;;;;;11.35;6.95;;;14.80;99.90;;;;;;5049100;28;20041;-53
2021/10/27 16:05:00;;;;;;;11.60;6.10;;;14.80;99.90;;;;;;5046295;28;20037;-54
2021/10/27 16:07:27;;;;;;;8.85;6.22;;;14.80;99.90;;;;;;5047337;28;20048;-53
2021/10/27 16:09:59;;;;;;;10.75;6.90;;;14.80;99.90;;;;;;5050421;28;20029;-54
2021/10/27 16:12:27;;;;;;;11.05;6.68;;;14.80;99.90;;;;;;5045694;28;20116;-54
2021/10/27 16:14:53;;;;;;;14.95;8.95;;;14.70;99.90;;;;;;5050128;28;20071;-54
2021/10/27 16:17:19;;;;;;;15.35;9.00;;;14.70;99.90;;;;;;5049664;28;20079;-54
2021/10/27 16:19:45;;;;;;;15.13;9.15;;;14.70;99.90;;;;;;5049621;28;20079;-51
2021/10/27 16:22:11;;;;;;;11.68;9.40;;;14.70;99.90;;;;;;5050524;28;20404;-52
2021/10/27 16:24:38;;;;;;;12.55;9.63;;;14.60;99.90;;;;;;5039528;28;20042;-51
2021/10/27 16:27:04;;;;;;;15.27;9.82;;;14.60;99.90;;;;;;5051456;28;20505;-54
2021/10/27 16:29:30;;;;;;;13.90;10.38;;;14.60;99.90;;;;;;5054398;28;20353;-54
2021/10/27 16:31:56;;;;;;;14.88;10.63;;;14.60;99.90;;;;;;5053329;28;20067;-54
2021/10/27 16:34:21;;;;;;;17.67;10.88;;;14.60;99.80;;;;;;5053075;28;20044;-54
2021/10/27 16:36:48;;;;;;;13.20;9.88;;;14.60;99.60;;;;;;5053402;28;20476;-53
2021/10/27 16:39:16;;;;;;;13.57;9.75;;;14.50;99.60;;;;;;5045854;28;20108;-51
2021/10/27 16:41:42;;;;;;;13.30;10.13;;;14.50;99.30;;;;;;5046711;28;20116;-54
2021/10/27 16:44:08;;;;;;;14.95;11.18;;;14.50;99.30;;;;;;5052848;28;20028;-54
2021/10/27 16:46:34;;;;;;;16.45;10.82;;;14.50;98.80;;;;;;5053059;28;20051;-54
2021/10/27 16:49:00;;;;;;;19.60;10.98;;;14.50;98.90;;;;;;5048810;28;20045;-54
2021/10/27 16:51:26;;;;;;;16.90;10.60;;;14.50;99.00;;;;;;5053868;28;20440;-54